Terminal Aerodrome Forecast
Issued by NWS

Home | Current Version | Previous Version | Text Only | Print | Product List | Glossary On
Versions: 1 2 3 4 5 6 7 8 9 10 11 12 13 14 15 16 17 18
000
FTUS43 KIND 282300
TAFBMG
TAF
KBMG 282326Z 2900/2924 00000KT P6SM SKC
     FM290900 15006KT P6SM SCT100 BKN250
     FM291500 18015G23KT P6SM SCT100 OVC250
     FM292000 19016G25KT P6SM BKN050 OVC080
      TEMPO 2922/2924 5SM -RA
      AMD LTD TO CLD VIS AND WIND 2901/2913=

USA.gov is the U.S. government's official web portal to all federal, state and local government web resources and services.